sensor_id;sensor_type;location;lat;lon;timestamp;P1;durP1;ratioP1;P2;durP2;ratioP2
8151;SDS011;4117;53.622;9.958;2024-03-23T00:53:08;25.07;;;4.67;;
8151;SDS011;4117;53.622;9.958;2024-03-23T00:55:35;23.20;;;4.73;;
8151;SDS011;4117;53.622;9.958;2024-03-23T00:58:01;18.93;;;4.00;;
8151;SDS011;4117;53.622;9.958;2024-03-23T01:00:28;21.17;;;4.90;;
8151;SDS011;4117;53.622;9.958;2024-03-23T01:02:54;24.80;;;4.57;;
8151;SDS011;4117;53.622;9.958;2024-03-23T01:05:21;26.80;;;4.53;;
8151;SDS011;4117;53.622;9.958;2024-03-23T01:07:47;27.53;;;4.83;;
8151;SDS011;4117;53.622;9.958;2024-03-23T01:10:15;22.80;;;4.53;;
8151;SDS011;4117;53.622;9.958;2024-03-23T01:12:41;27.50;;;5.00;;
8151;SDS011;4117;53.622;9.958;2024-03-23T01:15:08;24.90;;;5.13;;
8151;SDS011;4117;53.622;9.958;2024-03-23T01:17:34;19.13;;;4.70;;
8151;SDS011;4117;53.622;9.958;2024-03-23T01:20:01;23.80;;;4.67;;
8151;SDS011;4117;53.622;9.958;2024-03-23T01:22:28;24.53;;;4.40;;
8151;SDS011;4117;53.622;9.958;2024-03-23T01:24:54;26.20;;;4.80;;
8151;SDS011;4117;53.622;9.958;2024-03-23T01:27:22;23.53;;;4.33;;
8151;SDS011;4117;53.622;9.958;2024-03-23T01:29:49;25.10;;;4.63;;
8151;SDS011;4117;53.622;9.958;2024-03-23T01:32:17;23.67;;;4.60;;
8151;SDS011;4117;53.622;9.958;2024-03-23T01:34:44;19.83;;;4.10;;
8151;SDS011;4117;53.622;9.958;2024-03-23T01:37:10;26.90;;;4.87;;
8151;SDS011;4117;53.622;9.958;2024-03-23T01:39:37;22.33;;;4.57;;
8151;SDS011;4117;53.622;9.958;2024-03-23T01:42:04;24.90;;;5.00;;
8151;SDS011;4117;53.622;9.958;2024-03-23T01:44:32;19.90;;;5.33;;
8151;SDS011;4117;53.622;9.958;2024-03-23T01:46:58;23.47;;;4.87;;
8151;SDS011;4117;53.622;9.958;2024-03-23T01:49:25;23.20;;;5.00;;
8151;SDS011;4117;53.622;9.958;2024-03-23T01:51:51;21.30;;;4.67;;
8151;SDS011;4117;53.622;9.958;2024-03-23T01:54:18;20.27;;;4.30;;
8151;SDS011;4117;53.622;9.958;2024-03-23T01:56:44;28.10;;;4.77;;
8151;SDS011;4117;53.622;9.958;2024-03-23T01:59:12;17.07;;;4.37;;
8151;SDS011;4117;53.622;9.958;2024-03-23T02:01:40;19.27;;;4.43;;
8151;SDS011;4117;53.622;9.958;2024-03-23T02:04:06;21.63;;;3.93;;
8151;SDS011;4117;53.622;9.958;2024-03-23T02:06:34;24.63;;;4.60;;
8151;SDS011;4117;53.622;9.958;2024-03-23T02:09:01;17.73;;;3.97;;
8151;SDS011;4117;53.622;9.958;2024-03-23T02:11:29;19.60;;;4.00;;
8151;SDS011;4117;53.622;9.958;2024-03-23T02:13:55;18.23;;;4.33;;
8151;SDS011;4117;53.622;9.958;2024-03-23T02:16:21;19.20;;;4.90;;
8151;SDS011;4117;53.622;9.958;2024-03-23T02:18:50;15.03;;;3.73;;
8151;SDS011;4117;53.622;9.958;2024-03-23T02:21:16;26.07;;;5.40;;
8151;SDS011;4117;53.622;9.958;2024-03-23T02:23:44;19.33;;;4.07;;
8151;SDS011;4117;53.622;9.958;2024-03-23T02:26:10;26.00;;;4.73;;
8151;SDS011;4117;53.622;9.958;2024-03-23T02:28:37;15.17;;;4.10;;
8151;SDS011;4117;53.622;9.958;2024-03-23T02:31:03;21.67;;;4.60;;
8151;SDS011;4117;53.622;9.958;2024-03-23T02:33:30;20.23;;;4.00;;
8151;SDS011;4117;53.622;9.958;2024-03-23T02:35:57;18.40;;;4.23;;
8151;SDS011;4117;53.622;9.958;2024-03-23T02:38:24;27.13;;;4.70;;
8151;SDS011;4117;53.622;9.958;2024-03-23T02:40:51;21.07;;;3.90;;
8151;SDS011;4117;53.622;9.958;2024-03-23T02:43:18;21.87;;;4.97;;
8151;SDS011;4117;53.622;9.958;2024-03-23T02:45:44;17.27;;;3.90;;
8151;SDS011;4117;53.622;9.958;2024-03-23T02:48:11;16.83;;;4.00;;
8151;SDS011;4117;53.622;9.958;2024-03-23T02:50:37;20.07;;;4.20;;
8151;SDS011;4117;53.622;9.958;2024-03-23T02:53:04;20.30;;;4.53;;
8151;SDS011;4117;53.622;9.958;2024-03-23T02:55:30;20.17;;;4.40;;
8151;SDS011;4117;53.622;9.958;2024-03-23T02:57:59;23.03;;;4.60;;
8151;SDS011;4117;53.622;9.958;2024-03-23T03:03:13;16.67;;;4.03;;
8151;SDS011;4117;53.622;9.958;2024-03-23T03:05:40;21.27;;;4.10;;
8151;SDS011;4117;53.622;9.958;2024-03-23T03:08:06;21.03;;;4.50;;
8151;SDS011;4117;53.622;9.958;2024-03-23T03:10:33;18.60;;;4.07;;
8151;SDS011;4117;53.622;9.958;2024-03-23T03:13:02;18.63;;;4.23;;
8151;SDS011;4117;53.622;9.958;2024-03-23T03:15:29;17.27;;;3.93;;
8151;SDS011;4117;53.622;9.958;2024-03-23T03:17:55;19.87;;;4.30;;
8151;SDS011;4117;53.622;9.958;2024-03-23T03:20:22;19.33;;;4.37;;
8151;SDS011;4117;53.622;9.958;2024-03-23T03:22:49;17.60;;;4.13;;
8151;SDS011;4117;53.622;9.958;2024-03-23T03:25:18;23.00;;;5.00;;
8151;SDS011;4117;53.622;9.958;2024-03-23T03:27:44;22.90;;;4.50;;
8151;SDS011;4117;53.622;9.958;2024-03-23T03:30:13;22.10;;;4.07;;
8151;SDS011;4117;53.622;9.958;2024-03-23T03:32:39;18.67;;;3.93;;
8151;SDS011;4117;53.622;9.958;2024-03-23T03:35:06;15.37;;;4.20;;
8151;SDS011;4117;53.622;9.958;2024-03-23T03:37:32;20.57;;;5.03;;
8151;SDS011;4117;53.622;9.958;2024-03-23T03:39:59;19.33;;;3.97;;
8151;SDS011;4117;53.622;9.958;2024-03-23T03:42:26;21.53;;;4.10;;
8151;SDS011;4117;53.622;9.958;2024-03-23T03:44:53;25.50;;;4.10;;
8151;SDS011;4117;53.622;9.958;2024-03-23T03:47:21;15.63;;;4.47;;
8151;SDS011;4117;53.622;9.958;2024-03-23T03:49:47;22.87;;;5.07;;
8151;SDS011;4117;53.622;9.958;2024-03-23T03:52:13;14.60;;;3.70;;
8151;SDS011;4117;53.622;9.958;2024-03-23T03:54:40;19.47;;;4.40;;
8151;SDS011;4117;53.622;9.958;2024-03-23T03:57:06;25.97;;;4.30;;
8151;SDS011;4117;53.622;9.958;2024-03-23T03:59:33;18.23;;;3.90;;
8151;SDS011;4117;53.622;9.958;2024-03-23T04:01:59;19.03;;;4.00;;
8151;SDS011;4117;53.622;9.958;2024-03-23T04:04:28;17.83;;;3.67;;
8151;SDS011;4117;53.622;9.958;2024-03-23T04:06:57;21.33;;;3.57;;
8151;SDS011;4117;53.622;9.958;2024-03-23T04:09:25;22.53;;;3.70;;
8151;SDS011;4117;53.622;9.958;2024-03-23T04:11:51;27.20;;;4.40;;
8151;SDS011;4117;53.622;9.958;2024-03-23T04:14:18;20.87;;;3.93;;
8151;SDS011;4117;53.622;9.958;2024-03-23T04:16:44;15.87;;;4.00;;
8151;SDS011;4117;53.622;9.958;2024-03-23T04:19:11;19.77;;;4.20;;
8151;SDS011;4117;53.622;9.958;2024-03-23T04:21:38;17.33;;;4.10;;
8151;SDS011;4117;53.622;9.958;2024-03-23T04:24:05;17.40;;;4.13;;
8151;SDS011;4117;53.622;9.958;2024-03-23T04:26:39;16.90;;;3.97;;
8151;SDS011;4117;53.622;9.958;2024-03-23T04:29:07;17.40;;;4.00;;
8151;SDS011;4117;53.622;9.958;2024-03-23T04:31:33;18.97;;;4.00;;
8151;SDS011;4117;53.622;9.958;2024-03-23T04:34:00;18.83;;;4.37;;
8151;SDS011;4117;53.622;9.958;2024-03-23T04:36:26;22.03;;;4.20;;
8151;SDS011;4117;53.622;9.958;2024-03-23T04:38:55;13.93;;;3.10;;
8151;SDS011;4117;53.622;9.958;2024-03-23T04:41:22;15.93;;;3.53;;
8151;SDS011;4117;53.622;9.958;2024-03-23T04:43:49;13.83;;;3.70;;
8151;SDS011;4117;53.622;9.958;2024-03-23T04:46:16;19.43;;;4.40;;
8151;SDS011;4117;53.622;9.958;2024-03-23T04:48:43;21.60;;;4.03;;
8151;SDS011;4117;53.622;9.958;2024-03-23T04:51:10;19.43;;;4.00;;
8151;SDS011;4117;53.622;9.958;2024-03-23T04:53:46;22.03;;;3.97;;
8151;SDS011;4117;53.622;9.958;2024-03-23T04:56:14;21.73;;;3.77;;
8151;SDS011;4117;53.622;9.958;2024-03-23T04:58:42;19.27;;;4.07;;
8151;SDS011;4117;53.622;9.958;2024-03-23T05:01:08;22.03;;;4.47;;
8151;SDS011;4117;53.622;9.958;2024-03-23T05:03:36;18.43;;;3.93;;
8151;SDS011;4117;53.622;9.958;2024-03-23T05:06:02;16.60;;;4.03;;
8151;SDS011;4117;53.622;9.958;2024-03-23T05:08:30;19.77;;;3.90;;
8151;SDS011;4117;53.622;9.958;2024-03-23T05:10:56;19.57;;;4.20;;
8151;SDS011;4117;53.622;9.958;2024-03-23T05:13:25;19.00;;;3.77;;
8151;SDS011;4117;53.622;9.958;2024-03-23T05:15:52;16.80;;;3.40;;
8151;SDS011;4117;53.622;9.958;2024-03-23T05:18:18;20.77;;;3.90;;
8151;SDS011;4117;53.622;9.958;2024-03-23T05:20:45;19.17;;;3.97;;
8151;SDS011;4117;53.622;9.958;2024-03-23T05:23:11;17.53;;;4.20;;
8151;SDS011;4117;53.622;9.958;2024-03-23T05:25:38;19.73;;;3.93;;
8151;SDS011;4117;53.622;9.958;2024-03-23T05:28:04;20.67;;;4.67;;
8151;SDS011;4117;53.622;9.958;2024-03-23T05:30:33;18.60;;;4.10;;
8151;SDS011;4117;53.622;9.958;2024-03-23T05:32:59;18.70;;;4.17;;
8151;SDS011;4117;53.622;9.958;2024-03-23T05:35:26;16.40;;;3.87;;
8151;SDS011;4117;53.622;9.958;2024-03-23T05:37:52;20.03;;;3.70;;
8151;SDS011;4117;53.622;9.958;2024-03-23T05:40:19;18.60;;;4.13;;
8151;SDS011;4117;53.622;9.958;2024-03-23T05:42:45;19.60;;;3.57;;
8151;SDS011;4117;53.622;9.958;2024-03-23T05:45:11;19.23;;;4.20;;
8151;SDS011;4117;53.622;9.958;2024-03-23T05:47:39;18.13;;;4.23;;
8151;SDS011;4117;53.622;9.958;2024-03-23T05:50:06;16.33;;;4.13;;
8151;SDS011;4117;53.622;9.958;2024-03-23T05:52:35;17.43;;;4.17;;
8151;SDS011;4117;53.622;9.958;2024-03-23T05:55:01;21.20;;;4.07;;
8151;SDS011;4117;53.622;9.958;2024-03-23T05:57:28;22.60;;;4.43;;
8151;SDS011;4117;53.622;9.958;2024-03-23T05:59:55;18.17;;;3.97;;
8151;SDS011;4117;53.622;9.958;2024-03-23T06:02:21;23.57;;;4.40;;
8151;SDS011;4117;53.622;9.958;2024-03-23T06:04:50;20.10;;;4.13;;
8151;SDS011;4117;53.622;9.958;2024-03-23T06:07:15;18.17;;;3.87;;
8151;SDS011;4117;53.622;9.958;2024-03-23T06:09:43;20.50;;;4.30;;
8151;SDS011;4117;53.622;9.958;2024-03-23T06:12:09;21.73;;;3.77;;
8151;SDS011;4117;53.622;9.958;2024-03-23T06:14:36;16.50;;;3.93;;
8151;SDS011;4117;53.622;9.958;2024-03-23T06:17:02;14.93;;;3.40;;
8151;SDS011;4117;53.622;9.958;2024-03-23T06:19:28;23.80;;;4.20;;
8151;SDS011;4117;53.622;9.958;2024-03-23T06:21:56;16.33;;;3.77;;
8151;SDS011;4117;53.622;9.958;2024-03-23T06:24:23;19.50;;;4.23;;
8151;SDS011;4117;53.622;9.958;2024-03-23T06:26:49;21.60;;;4.93;;
8151;SDS011;4117;53.622;9.958;2024-03-23T06:29:16;19.13;;;4.30;;
8151;SDS011;4117;53.622;9.958;2024-03-23T06:31:42;23.57;;;4.00;;
8151;SDS011;4117;53.622;9.958;2024-03-23T06:34:09;17.37;;;4.37;;
8151;SDS011;4117;53.622;9.958;2024-03-23T06:36:35;24.57;;;5.13;;
8151;SDS011;4117;53.622;9.958;2024-03-23T06:39:05;18.27;;;4.60;;
8151;SDS011;4117;53.622;9.958;2024-03-23T06:41:31;19.37;;;3.73;;
8151;SDS011;4117;53.622;9.958;2024-03-23T06:43:58;16.50;;;3.80;;
8151;SDS011;4117;53.622;9.958;2024-03-23T06:46:23;13.73;;;3.90;;
8151;SDS011;4117;53.622;9.958;2024-03-23T06:48:50;22.50;;;4.13;;
8151;SDS011;4117;53.622;9.958;2024-03-23T06:51:16;22.83;;;4.10;;
8151;SDS011;4117;53.622;9.958;2024-03-23T06:53:43;19.87;;;3.83;;
8151;SDS011;4117;53.622;9.958;2024-03-23T06:56:11;21.30;;;4.10;;
8151;SDS011;4117;53.622;9.958;2024-03-23T06:58:38;18.23;;;3.67;;
8151;SDS011;4117;53.622;9.958;2024-03-23T07:01:05;16.70;;;4.00;;
8151;SDS011;4117;53.622;9.958;2024-03-23T07:03:34;15.37;;;3.63;;
8151;SDS011;4117;53.622;9.958;2024-03-23T07:06:00;15.23;;;3.73;;
8151;SDS011;4117;53.622;9.958;2024-03-23T07:08:29;20.97;;;4.20;;
8151;SDS011;4117;53.622;9.958;2024-03-23T07:10:55;16.37;;;4.50;;
8151;SDS011;4117;53.622;9.958;2024-03-23T07:13:24;18.43;;;4.00;;
8151;SDS011;4117;53.622;9.958;2024-03-23T07:15:53;25.00;;;4.23;;
8151;SDS011;4117;53.622;9.958;2024-03-23T07:18:21;22.33;;;4.43;;
8151;SDS011;4117;53.622;9.958;2024-03-23T07:20:52;18.43;;;3.90;;
8151;SDS011;4117;53.622;9.958;2024-03-23T07:23:19;18.20;;;4.57;;
8151;SDS011;4117;53.622;9.958;2024-03-23T07:25:45;19.23;;;4.03;;
8151;SDS011;4117;53.622;9.958;2024-03-23T07:28:23;22.30;;;3.63;;
8151;SDS011;4117;53.622;9.958;2024-03-23T07:31:00;21.20;;;3.80;;
8151;SDS011;4117;53.622;9.958;2024-03-23T07:33:30;16.63;;;4.17;;
8151;SDS011;4117;53.622;9.958;2024-03-23T07:35:57;18.17;;;4.40;;
8151;SDS011;4117;53.622;9.958;2024-03-23T07:38:25;18.33;;;3.93;;
8151;SDS011;4117;53.622;9.958;2024-03-23T07:40:52;19.23;;;4.10;;
8151;SDS011;4117;53.622;9.958;2024-03-23T07:43:21;15.57;;;4.23;;
8151;SDS011;4117;53.622;9.958;2024-03-23T07:45:52;19.13;;;4.00;;
8151;SDS011;4117;53.622;9.958;2024-03-23T07:48:20;14.90;;;4.00;;
8151;SDS011;4117;53.622;9.958;2024-03-23T07:50:55;17.93;;;4.17;;
8151;SDS011;4117;53.622;9.958;2024-03-23T07:53:26;18.50;;;4.40;;
8151;SDS011;4117;53.622;9.958;2024-03-23T07:55:53;21.03;;;4.37;;
8151;SDS011;4117;53.622;9.958;2024-03-23T07:58:22;21.57;;;4.47;;
8151;SDS011;4117;53.622;9.958;2024-03-23T08:00:48;21.67;;;4.80;;
8151;SDS011;4117;53.622;9.958;2024-03-23T08:03:16;19.90;;;4.47;;
8151;SDS011;4117;53.622;9.958;2024-03-23T08:05:42;23.37;;;4.33;;
8151;SDS011;4117;53.622;9.958;2024-03-23T08:08:09;15.13;;;4.60;;
8151;SDS011;4117;53.622;9.958;2024-03-23T08:10:36;20.50;;;4.37;;
8151;SDS011;4117;53.622;9.958;2024-03-23T08:13:03;21.37;;;4.57;;
8151;SDS011;4117;53.622;9.958;2024-03-23T08:15:30;23.67;;;4.43;;
8151;SDS011;4117;53.622;9.958;2024-03-23T08:17:59;19.17;;;4.40;;
8151;SDS011;4117;53.622;9.958;2024-03-23T08:20:26;18.07;;;3.70;;
8151;SDS011;4117;53.622;9.958;2024-03-23T08:22:53;17.57;;;3.97;;
8151;SDS011;4117;53.622;9.958;2024-03-23T08:25:19;21.43;;;3.67;;
8151;SDS011;4117;53.622;9.958;2024-03-23T08:27:46;19.53;;;4.57;;
8151;SDS011;4117;53.622;9.958;2024-03-23T08:30:13;14.27;;;3.27;;
8151;SDS011;4117;53.622;9.958;2024-03-23T08:32:40;19.10;;;4.10;;
8151;SDS011;4117;53.622;9.958;2024-03-23T08:35:07;15.97;;;3.37;;
8151;SDS011;4117;53.622;9.958;2024-03-23T08:37:36;18.50;;;3.67;;
8151;SDS011;4117;53.622;9.958;2024-03-23T08:40:02;15.70;;;3.53;;
8151;SDS011;4117;53.622;9.958;2024-03-23T08:42:29;23.80;;;3.77;;
8151;SDS011;4117;53.622;9.958;2024-03-23T08:44:55;16.27;;;3.43;;
8151;SDS011;4117;53.622;9.958;2024-03-23T08:47:22;18.47;;;3.57;;
8151;SDS011;4117;53.622;9.958;2024-03-23T08:49:48;15.73;;;3.57;;
8151;SDS011;4117;53.622;9.958;2024-03-23T08:52:15;15.77;;;3.47;;
8151;SDS011;4117;53.622;9.958;2024-03-23T08:54:43;21.43;;;3.73;;
8151;SDS011;4117;53.622;9.958;2024-03-23T08:57:11;16.63;;;3.40;;
8151;SDS011;4117;53.622;9.958;2024-03-23T08:59:37;15.30;;;3.37;;
8151;SDS011;4117;53.622;9.958;2024-03-23T09:02:04;12.20;;;3.37;;
8151;SDS011;4117;53.622;9.958;2024-03-23T09:04:30;15.87;;;3.70;;
8151;SDS011;4117;53.622;9.958;2024-03-23T09:06:57;16.43;;;3.57;;
8151;SDS011;4117;53.622;9.958;2024-03-23T09:09:25;16.33;;;3.17;;
8151;SDS011;4117;53.622;9.958;2024-03-23T09:11:53;15.07;;;3.23;;
8151;SDS011;4117;53.622;9.958;2024-03-23T09:14:19;15.07;;;3.03;;
8151;SDS011;4117;53.622;9.958;2024-03-23T09:16:46;10.77;;;2.77;;
8151;SDS011;4117;53.622;9.958;2024-03-23T09:19:15;13.00;;;2.80;;
8151;SDS011;4117;53.622;9.958;2024-03-23T09:21:43;15.83;;;3.50;;
8151;SDS011;4117;53.622;9.958;2024-03-23T09:24:09;11.63;;;2.90;;
8151;SDS011;4117;53.622;9.958;2024-03-23T09:26:36;14.63;;;3.50;;
8151;SDS011;4117;53.622;9.958;2024-03-23T09:29:03;13.63;;;3.30;;
8151;SDS011;4117;53.622;9.958;2024-03-23T09:31:30;13.30;;;2.87;;
8151;SDS011;4117;53.622;9.958;2024-03-23T09:33:56;17.23;;;3.23;;
8151;SDS011;4117;53.622;9.958;2024-03-23T09:36:24;11.67;;;2.70;;
8151;SDS011;4117;53.622;9.958;2024-03-23T09:38:50;14.53;;;3.00;;
8151;SDS011;4117;53.622;9.958;2024-03-23T09:41:17;10.53;;;3.40;;
8151;SDS011;4117;53.622;9.958;2024-03-23T09:43:43;12.60;;;3.47;;
8151;SDS011;4117;53.622;9.958;2024-03-23T09:46:14;11.53;;;2.60;;
8151;SDS011;4117;53.622;9.958;2024-03-23T09:48:41;9.70;;;2.63;;
8151;SDS011;4117;53.622;9.958;2024-03-23T09:51:11;10.37;;;2.50;;
8151;SDS011;4117;53.622;9.958;2024-03-23T09:53:37;8.47;;;2.40;;
8151;SDS011;4117;53.622;9.958;2024-03-23T09:56:04;9.00;;;2.43;;
8151;SDS011;4117;53.622;9.958;2024-03-23T09:58:31;11.97;;;2.70;;
8151;SDS011;4117;53.622;9.958;2024-03-23T10:00:58;14.43;;;2.33;;
8151;SDS011;4117;53.622;9.958;2024-03-23T10:03:26;10.07;;;2.30;;
8151;SDS011;4117;53.622;9.958;2024-03-23T10:06:02;13.50;;;2.90;;
8151;SDS011;4117;53.622;9.958;2024-03-23T10:08:29;13.67;;;3.03;;
8151;SDS011;4117;53.622;9.958;2024-03-23T10:10:58;10.97;;;3.10;;
8151;SDS011;4117;53.622;9.958;2024-03-23T10:13:38;14.90;;;3.17;;
8151;SDS011;4117;53.622;9.958;2024-03-23T10:16:08;15.73;;;3.37;;
8151;SDS011;4117;53.622;9.958;2024-03-23T10:18:38;11.77;;;2.90;;
8151;SDS011;4117;53.622;9.958;2024-03-23T10:21:08;16.40;;;3.47;;
8151;SDS011;4117;53.622;9.958;2024-03-23T10:23:36;10.10;;;2.93;;
8151;SDS011;4117;53.622;9.958;2024-03-23T10:28:54;13.13;;;2.97;;
8151;SDS011;4117;53.622;9.958;2024-03-23T10:31:26;8.77;;;2.20;;
8151;SDS011;4117;53.622;9.958;2024-03-23T10:33:53;13.33;;;2.60;;
8151;SDS011;4117;53.622;9.958;2024-03-23T10:36:21;6.80;;;2.20;;
8151;SDS011;4117;53.622;9.958;2024-03-23T10:38:48;11.07;;;2.20;;
8151;SDS011;4117;53.622;9.958;2024-03-23T10:41:17;8.57;;;2.10;;
8151;SDS011;4117;53.622;9.958;2024-03-23T10:43:44;8.67;;;2.27;;
8151;SDS011;4117;53.622;9.958;2024-03-23T10:46:16;7.13;;;2.30;;
8151;SDS011;4117;53.622;9.958;2024-03-23T10:48:43;11.60;;;2.77;;
8151;SDS011;4117;53.622;9.958;2024-03-23T10:51:12;11.57;;;2.40;;
8151;SDS011;4117;53.622;9.958;2024-03-23T10:53:39;12.20;;;2.40;;
8151;SDS011;4117;53.622;9.958;2024-03-23T10:56:09;8.47;;;2.07;;
8151;SDS011;4117;53.622;9.958;2024-03-23T10:58:37;6.13;;;2.00;;
8151;SDS011;4117;53.622;9.958;2024-03-23T11:01:06;8.57;;;2.00;;
8151;SDS011;4117;53.622;9.958;2024-03-23T11:03:36;10.57;;;2.33;;
8151;SDS011;4117;53.622;9.958;2024-03-23T11:06:04;5.27;;;1.60;;
8151;SDS011;4117;53.622;9.958;2024-03-23T11:08:33;5.30;;;1.67;;
8151;SDS011;4117;53.622;9.958;2024-03-23T11:11:19;7.80;;;2.13;;
8151;SDS011;4117;53.622;9.958;2024-03-23T11:13:47;8.43;;;2.07;;
8151;SDS011;4117;53.622;9.958;2024-03-23T11:16:15;7.27;;;1.87;;
8151;SDS011;4117;53.622;9.958;2024-03-23T11:18:42;6.57;;;1.67;;
8151;SDS011;4117;53.622;9.958;2024-03-23T11:21:10;6.80;;;1.83;;
8151;SDS011;4117;53.622;9.958;2024-03-23T11:26:42;9.30;;;2.20;;
8151;SDS011;4117;53.622;9.958;2024-03-23T11:29:11;5.93;;;1.90;;
8151;SDS011;4117;53.622;9.958;2024-03-23T11:31:38;6.40;;;1.80;;
8151;SDS011;4117;53.622;9.958;2024-03-23T11:34:10;8.23;;;1.97;;
8151;SDS011;4117;53.622;9.958;2024-03-23T11:36:38;8.23;;;1.83;;
8151;SDS011;4117;53.622;9.958;2024-03-23T11:39:11;5.70;;;1.70;;
8151;SDS011;4117;53.622;9.958;2024-03-23T11:41:48;6.33;;;1.50;;
8151;SDS011;4117;53.622;9.958;2024-03-23T11:44:16;9.60;;;2.20;;
8151;SDS011;4117;53.622;9.958;2024-03-23T11:46:47;7.30;;;2.03;;
8151;SDS011;4117;53.622;9.958;2024-03-23T11:49:20;8.13;;;2.20;;
8151;SDS011;4117;53.622;9.958;2024-03-23T11:51:54;7.70;;;2.20;;
8151;SDS011;4117;53.622;9.958;2024-03-23T11:54:20;8.40;;;2.23;;
8151;SDS011;4117;53.622;9.958;2024-03-23T11:56:56;5.03;;;1.40;;
8151;SDS011;4117;53.622;9.958;2024-03-23T11:59:33;4.87;;;1.27;;
8151;SDS011;4117;53.622;9.958;2024-03-23T12:02:01;5.67;;;1.30;;
8151;SDS011;4117;53.622;9.958;2024-03-23T12:04:31;4.60;;;1.20;;
8151;SDS011;4117;53.622;9.958;2024-03-23T12:07:14;1.50;;;1.00;;
8151;SDS011;4117;53.622;9.958;2024-03-23T12:09:41;5.33;;;1.30;;
8151;SDS011;4117;53.622;9.958;2024-03-23T12:12:10;4.30;;;1.20;;
8151;SDS011;4117;53.622;9.958;2024-03-23T12:14:39;2.53;;;1.00;;
8151;SDS011;4117;53.622;9.958;2024-03-23T12:17:07;7.37;;;1.40;;
8151;SDS011;4117;53.622;9.958;2024-03-23T12:19:37;2.67;;;1.00;;
8151;SDS011;4117;53.622;9.958;2024-03-23T12:22:05;2.87;;;1.00;;
8151;SDS011;4117;53.622;9.958;2024-03-23T12:24:32;5.80;;;1.33;;
8151;SDS011;4117;53.622;9.958;2024-03-23T12:27:03;2.93;;;1.10;;
8151;SDS011;4117;53.622;9.958;2024-03-23T12:29:31;6.00;;;1.30;;
8151;SDS011;4117;53.622;9.958;2024-03-23T12:31:59;2.23;;;1.10;;
8151;SDS011;4117;53.622;9.958;2024-03-23T12:34:26;3.47;;;1.20;;
8151;SDS011;4117;53.622;9.958;2024-03-23T12:36:53;3.63;;;1.33;;
8151;SDS011;4117;53.622;9.958;2024-03-23T12:39:19;1.20;;;0.63;;
8151;SDS011;4117;53.622;9.958;2024-03-23T12:41:47;2.50;;;1.13;;
8151;SDS011;4117;53.622;9.958;2024-03-23T12:44:13;1.13;;;0.60;;
8151;SDS011;4117;53.622;9.958;2024-03-23T12:46:41;1.77;;;0.80;;
8151;SDS011;4117;53.622;9.958;2024-03-23T12:49:08;0.97;;;0.60;;
8151;SDS011;4117;53.622;9.958;2024-03-23T12:51:35;1.67;;;0.87;;
8151;SDS011;4117;53.622;9.958;2024-03-23T12:54:01;0.90;;;0.60;;
8151;SDS011;4117;53.622;9.958;2024-03-23T12:56:28;0.93;;;0.70;;
8151;SDS011;4117;53.622;9.958;2024-03-23T12:58:54;1.63;;;0.80;;
8151;SDS011;4117;53.622;9.958;2024-03-23T13:01:22;1.33;;;1.03;;
8151;SDS011;4117;53.622;9.958;2024-03-23T13:03:50;2.97;;;1.20;;
8151;SDS011;4117;53.622;9.958;2024-03-23T13:06:17;2.10;;;0.93;;
8151;SDS011;4117;53.622;9.958;2024-03-23T13:08:43;1.37;;;0.87;;
8151;SDS011;4117;53.622;9.958;2024-03-23T13:11:10;1.37;;;0.80;;
8151;SDS011;4117;53.622;9.958;2024-03-23T13:13:37;1.20;;;0.67;;
8151;SDS011;4117;53.622;9.958;2024-03-23T13:16:04;1.83;;;1.10;;
8151;SDS011;4117;53.622;9.958;2024-03-23T13:18:33;2.90;;;1.10;;
8151;SDS011;4117;53.622;9.958;2024-03-23T13:21:03;2.97;;;1.00;;
8151;SDS011;4117;53.622;9.958;2024-03-23T13:23:29;1.93;;;1.07;;
8151;SDS011;4117;53.622;9.958;2024-03-23T13:25:57;2.90;;;1.00;;
8151;SDS011;4117;53.622;9.958;2024-03-23T13:28:23;2.97;;;1.10;;
8151;SDS011;4117;53.622;9.958;2024-03-23T13:30:51;3.83;;;1.03;;
8151;SDS011;4117;53.622;9.958;2024-03-23T13:33:17;2.30;;;1.20;;
8151;SDS011;4117;53.622;9.958;2024-03-23T13:35:50;3.80;;;1.40;;
8151;SDS011;4117;53.622;9.958;2024-03-23T13:38:18;4.73;;;1.60;;
8151;SDS011;4117;53.622;9.958;2024-03-23T13:40:50;4.33;;;1.40;;
8151;SDS011;4117;53.622;9.958;2024-03-23T13:43:19;2.47;;;1.03;;
8151;SDS011;4117;53.622;9.958;2024-03-23T13:45:47;4.63;;;1.40;;
8151;SDS011;4117;53.622;9.958;2024-03-23T13:48:15;2.33;;;1.20;;
8151;SDS011;4117;53.622;9.958;2024-03-23T13:50:43;5.13;;;1.80;;
8151;SDS011;4117;53.622;9.958;2024-03-23T13:53:09;4.13;;;1.40;;
8151;SDS011;4117;53.622;9.958;2024-03-23T13:55:37;3.83;;;1.10;;
8151;SDS011;4117;53.622;9.958;2024-03-23T13:58:11;3.03;;;1.17;;
8151;SDS011;4117;53.622;9.958;2024-03-23T14:00:38;3.00;;;1.20;;
8151;SDS011;4117;53.622;9.958;2024-03-23T14:03:04;6.00;;;1.30;;
8151;SDS011;4117;53.622;9.958;2024-03-23T14:05:31;6.00;;;1.30;;
8151;SDS011;4117;53.622;9.958;2024-03-23T14:07:57;4.83;;;1.60;;
8151;SDS011;4117;53.622;9.958;2024-03-23T14:10:24;4.20;;;1.20;;
8151;SDS011;4117;53.622;9.958;2024-03-23T14:12:52;6.03;;;1.47;;
8151;SDS011;4117;53.622;9.958;2024-03-23T14:15:19;8.03;;;1.60;;
8151;SDS011;4117;53.622;9.958;2024-03-23T14:17:45;4.03;;;1.27;;
8151;SDS011;4117;53.622;9.958;2024-03-23T14:20:12;3.57;;;1.23;;
8151;SDS011;4117;53.622;9.958;2024-03-23T14:22:38;4.13;;;1.30;;
8151;SDS011;4117;53.622;9.958;2024-03-23T14:25:06;3.27;;;1.20;;
8151;SDS011;4117;53.622;9.958;2024-03-23T14:27:33;3.37;;;1.30;;
8151;SDS011;4117;53.622;9.958;2024-03-23T14:30:04;2.97;;;1.43;;
8151;SDS011;4117;53.622;9.958;2024-03-23T14:32:31;5.07;;;1.40;;
8151;SDS011;4117;53.622;9.958;2024-03-23T14:34:59;4.97;;;1.57;;
8151;SDS011;4117;53.622;9.958;2024-03-23T14:37:25;2.90;;;1.37;;
8151;SDS011;4117;53.622;9.958;2024-03-23T14:39:54;4.73;;;1.70;;
8151;SDS011;4117;53.622;9.958;2024-03-23T14:42:21;6.10;;;1.40;;
8151;SDS011;4117;53.622;9.958;2024-03-23T14:44:48;5.77;;;1.67;;
8151;SDS011;4117;53.622;9.958;2024-03-23T14:47:16;2.77;;;1.33;;
8151;SDS011;4117;53.622;9.958;2024-03-23T14:49:44;4.40;;;1.20;;
8151;SDS011;4117;53.622;9.958;2024-03-23T14:52:12;5.90;;;1.87;;
8151;SDS011;4117;53.622;9.958;2024-03-23T14:54:39;3.33;;;1.50;;
8151;SDS011;4117;53.622;9.958;2024-03-23T14:57:05;5.57;;;1.50;;
8151;SDS011;4117;53.622;9.958;2024-03-23T14:59:34;7.90;;;1.80;;
8151;SDS011;4117;53.622;9.958;2024-03-23T15:02:00;3.10;;;1.23;;
8151;SDS011;4117;53.622;9.958;2024-03-23T15:04:28;3.83;;;1.33;;
8151;SDS011;4117;53.622;9.958;2024-03-23T15:06:54;4.27;;;1.40;;
8151;SDS011;4117;53.622;9.958;2024-03-23T15:09:21;5.37;;;1.37;;
8151;SDS011;4117;53.622;9.958;2024-03-23T15:11:47;2.57;;;1.10;;
8151;SDS011;4117;53.622;9.958;2024-03-23T15:14:14;3.70;;;1.30;;
8151;SDS011;4117;53.622;9.958;2024-03-23T15:16:40;3.77;;;1.10;;
8151;SDS011;4117;53.622;9.958;2024-03-23T15:19:08;4.10;;;0.97;;
8151;SDS011;4117;53.622;9.958;2024-03-23T15:21:35;1.33;;;0.70;;
8151;SDS011;4117;53.622;9.958;2024-03-23T15:24:03;1.30;;;0.70;;
8151;SDS011;4117;53.622;9.958;2024-03-23T15:26:29;1.77;;;0.80;;
8151;SDS011;4117;53.622;9.958;2024-03-23T15:28:56;2.63;;;1.10;;
8151;SDS011;4117;53.622;9.958;2024-03-23T15:31:36;2.40;;;1.20;;
8151;SDS011;4117;53.622;9.958;2024-03-23T15:34:04;2.63;;;1.47;;
8151;SDS011;4117;53.622;9.958;2024-03-23T15:36:30;3.83;;;1.60;;
8151;SDS011;4117;53.622;9.958;2024-03-23T15:38:58;5.17;;;1.53;;
8151;SDS011;4117;53.622;9.958;2024-03-23T15:41:24;7.70;;;1.90;;
8151;SDS011;4117;53.622;9.958;2024-03-23T15:43:51;6.30;;;1.60;;
8151;SDS011;4117;53.622;9.958;2024-03-23T15:46:18;7.10;;;1.80;;
8151;SDS011;4117;53.622;9.958;2024-03-23T15:48:45;6.47;;;1.97;;
8151;SDS011;4117;53.622;9.958;2024-03-23T15:51:12;4.27;;;1.50;;
8151;SDS011;4117;53.622;9.958;2024-03-23T15:53:39;5.50;;;1.40;;
8151;SDS011;4117;53.622;9.958;2024-03-23T15:56:07;4.10;;;1.20;;
8151;SDS011;4117;53.622;9.958;2024-03-23T15:58:34;3.10;;;1.50;;
8151;SDS011;4117;53.622;9.958;2024-03-23T16:01:00;5.50;;;1.80;;
8151;SDS011;4117;53.622;9.958;2024-03-23T16:03:28;5.20;;;1.60;;
8151;SDS011;4117;53.622;9.958;2024-03-23T16:05:55;5.43;;;1.47;;
8151;SDS011;4117;53.622;9.958;2024-03-23T16:08:23;7.47;;;1.60;;
8151;SDS011;4117;53.622;9.958;2024-03-23T16:10:49;5.70;;;1.83;;